Time;durP1;ratioP1;P1;durP2;ratioP2;P2;SDS_P1;SDS_P2;PMS_P1;PMS_P2;Temp;Humidity;BMP_temperature;BMP_pressure;BME280_temperature;BME280_humidity;BME280_pressure;Samples;Min_cycle;Max_cycle;Signal;HPM_P1;HPM_P2
2023/12/18 00:02:07;;;;;;;6.05;2.78;;;;;;;;;;5034227;28;20038;-75
2023/12/18 00:04:33;;;;;;;4.93;2.40;;;;;;;;;;5044664;28;20047;-75
2023/12/18 00:06:58;;;;;;;5.07;2.60;;;;;;;;;;5050478;28;20079;-75
2023/12/18 00:09:23;;;;;;;6.95;3.15;;;;;;;;;;5040126;28;20116;-75
2023/12/18 00:11:48;;;;;;;3.85;2.60;;;;;;;;;;5036240;28;20037;-75
2023/12/18 00:14:14;;;;;;;3.78;2.30;;;;;;;;;;5035395;28;20060;-75
2023/12/18 00:16:39;;;;;;;4.30;2.65;;;;;;;;;;5038495;28;20032;-75
2023/12/18 00:19:05;;;;;;;3.13;2.28;;;;;;;;;;5036889;28;20041;-75
2023/12/18 00:21:30;;;;;;;2.83;2.42;;;;;;;;;;5043359;28;20033;-75
2023/12/18 00:23:55;;;;;;;3.90;2.70;;;;;;;;;;5036009;28;20024;-75
2023/12/18 00:26:21;;;;;;;3.45;2.72;;;;;;;;;;5049972;28;20044;-75
2023/12/18 00:28:46;;;;;;;3.08;2.33;;;;;;;;;;5025602;28;20057;-75
2023/12/18 00:31:11;;;;;;;6.53;2.78;;;;;;;;;;5035920;28;20041;-75
2023/12/18 00:33:36;;;;;;;3.13;2.47;;;;;;;;;;5044442;28;20044;-75
2023/12/18 00:36:02;;;;;;;7.60;2.50;;;;;;;;;;5017963;28;20070;-75
2023/12/18 00:38:27;;;;;;;5.25;2.80;;;;;;;;;;5039111;28;20033;-74
2023/12/18 00:40:52;;;;;;;7.05;2.67;;;;;;;;;;5043392;28;20421;-75
2023/12/18 00:43:18;;;;;;;3.50;2.28;;;;;;;;;;5039884;28;20037;-75
2023/12/18 00:45:43;;;;;;;2.20;2.00;;;;;;;;;;5024789;28;20164;-75
2023/12/18 00:48:08;;;;;;;1.92;1.77;;;;;;;;;;5041728;28;20032;-75
2023/12/18 00:50:34;;;;;;;1.70;1.60;;;;;;;;;;5049953;28;20020;-75
2023/12/18 00:52:59;;;;;;;1.77;1.63;;;;;;;;;;5043332;28;20525;-75
2023/12/18 00:55:24;;;;;;;2.83;1.73;;;;;;;;;;5043847;28;20041;-76
2023/12/18 00:57:51;;;;;;;3.17;2.53;;;;;;;;;;5039114;28;20112;-76
2023/12/18 01:00:16;;;;;;;2.08;1.50;;;;;;;;;;5037207;28;20475;-75
2023/12/18 01:02:42;;;;;;;2.03;1.45;;;;;;;;;;5043953;28;20104;-75
2023/12/18 01:05:08;;;;;;;1.65;1.52;;;;;;;;;;5046371;28;20516;-75
2023/12/18 01:07:33;;;;;;;1.50;1.40;;;;;;;;;;5033989;28;20099;-75
2023/12/18 01:09:59;;;;;;;1.60;1.50;;;;;;;;;;5041945;28;20037;-75
2023/12/18 01:12:28;;;;;;;1.60;1.50;;;;;;;;;;5021668;28;20033;-75
2023/12/18 01:14:53;;;;;;;1.50;1.40;;;;;;;;;;5024705;28;20032;-76
2023/12/18 01:17:18;;;;;;;2.00;1.75;;;;;;;;;;5043200;28;20033;-75
2023/12/18 01:19:44;;;;;;;1.70;1.33;;;;;;;;;;5038657;28;20401;-75
2023/12/18 01:22:09;;;;;;;2.30;1.50;;;;;;;;;;5022082;28;20045;-75
2023/12/18 01:24:34;;;;;;;2.95;1.50;;;;;;;;;;5043303;28;20044;-75
2023/12/18 01:27:00;;;;;;;1.85;1.50;;;;;;;;;;5025677;28;20490;-75
2023/12/18 01:29:25;;;;;;;2.00;1.80;;;;;;;;;;5048889;28;20033;-75
2023/12/18 01:31:50;;;;;;;2.40;1.80;;;;;;;;;;5035606;28;20033;-75
2023/12/18 01:34:16;;;;;;;2.20;1.88;;;;;;;;;;5037976;28;20044;-75
2023/12/18 01:36:41;;;;;;;3.42;2.75;;;;;;;;;;5052554;28;20574;-75
2023/12/18 01:39:06;;;;;;;3.58;3.05;;;;;;;;;;5044726;28;20029;-75
2023/12/18 01:41:31;;;;;;;2.75;2.42;;;;;;;;;;5052847;28;20025;-75
2023/12/18 01:43:57;;;;;;;3.28;2.60;;;;;;;;;;5043933;28;20052;-75
2023/12/18 01:46:25;;;;;;;3.05;2.42;;;;;;;;;;5041414;28;20463;-75
2023/12/18 01:48:51;;;;;;;4.28;2.75;;;;;;;;;;5046881;28;20029;-75
2023/12/18 01:51:19;;;;;;;4.90;3.25;;;;;;;;;;5052485;28;20071;-75
2023/12/18 01:53:47;;;;;;;3.75;2.88;;;;;;;;;;5030795;28;20075;-75
2023/12/18 01:56:14;;;;;;;1.95;1.75;;;;;;;;;;5047561;28;20497;-75
2023/12/18 01:58:44;;;;;;;3.58;2.03;;;;;;;;;;5040689;28;20115;-75
2023/12/18 02:01:11;;;;;;;1.98;1.63;;;;;;;;;;5051671;28;20033;-75
2023/12/18 02:03:38;;;;;;;2.60;1.92;;;;;;;;;;5047737;28;20091;-75
2023/12/18 02:06:04;;;;;;;4.32;2.17;;;;;;;;;;5050536;28;20029;-75
2023/12/18 02:08:32;;;;;;;2.00;1.80;;;;;;;;;;5047667;28;20369;-75
2023/12/18 02:10:58;;;;;;;2.45;2.15;;;;;;;;;;5044759;28;20116;-75
2023/12/18 02:13:24;;;;;;;1.75;1.65;;;;;;;;;;5038833;28;20115;-77
2023/12/18 02:15:49;;;;;;;4.50;3.03;;;;;;;;;;5045260;28;20032;-75
2023/12/18 02:18:15;;;;;;;5.30;3.60;;;;;;;;;;5046679;28;20107;-75
2023/12/18 02:20:41;;;;;;;2.88;2.15;;;;;;;;;;5044418;28;20414;-75
2023/12/18 02:23:07;;;;;;;2.65;1.90;;;;;;;;;;5042304;28;20648;-76
2023/12/18 02:25:32;;;;;;;2.97;2.15;;;;;;;;;;5045948;28;20136;-76
2023/12/18 02:27:57;;;;;;;1.85;1.75;;;;;;;;;;5038843;28;20037;-76
2023/12/18 02:30:23;;;;;;;2.70;1.83;;;;;;;;;;5041046;28;20061;-76
2023/12/18 02:32:49;;;;;;;1.60;1.50;;;;;;;;;;5035538;28;20127;-76
2023/12/18 02:35:14;;;;;;;3.10;2.00;;;;;;;;;;5044188;28;20041;-76
2023/12/18 02:37:40;;;;;;;1.88;1.25;;;;;;;;;;5045313;28;20040;-76
2023/12/18 02:40:06;;;;;;;1.60;1.50;;;;;;;;;;5038805;28;20060;-76
2023/12/18 02:42:31;;;;;;;2.25;1.30;;;;;;;;;;5043117;28;20040;-76
2023/12/18 02:44:56;;;;;;;1.30;1.20;;;;;;;;;;5044247;28;20025;-76
2023/12/18 02:47:22;;;;;;;3.97;1.27;;;;;;;;;;5044730;28;20131;-76
2023/12/18 02:49:48;;;;;;;1.40;1.30;;;;;;;;;;5038511;28;20512;-76
2023/12/18 02:52:13;;;;;;;1.50;1.40;;;;;;;;;;5041299;28;20438;-76
2023/12/18 02:54:38;;;;;;;2.30;1.45;;;;;;;;;;5044694;28;20041;-76
2023/12/18 02:57:04;;;;;;;1.52;1.30;;;;;;;;;;5045008;28;20037;-75
2023/12/18 02:59:29;;;;;;;2.00;1.40;;;;;;;;;;5046740;28;20029;-76
2023/12/18 03:01:54;;;;;;;2.55;1.70;;;;;;;;;;5051649;28;20061;-78
2023/12/18 03:04:20;;;;;;;1.42;1.10;;;;;;;;;;5043221;28;20057;-75
2023/12/18 03:06:46;;;;;;;2.10;1.65;;;;;;;;;;5042477;28;20029;-77
2023/12/18 03:09:12;;;;;;;2.00;1.75;;;;;;;;;;5028669;28;20029;-76
2023/12/18 03:11:38;;;;;;;1.40;1.30;;;;;;;;;;5049793;28;20136;-76
2023/12/18 03:14:03;;;;;;;1.30;1.20;;;;;;;;;;5036038;28;20524;-76
2023/12/18 03:16:29;;;;;;;2.80;1.67;;;;;;;;;;5023068;28;20120;-76
2023/12/18 03:18:54;;;;;;;2.20;1.90;;;;;;;;;;5040353;28;20037;-76
2023/12/18 03:21:19;;;;;;;2.83;2.42;;;;;;;;;;5041677;28;20040;-76
2023/12/18 03:23:44;;;;;;;1.70;1.60;;;;;;;;;;5047503;28;20554;-76
2023/12/18 03:26:10;;;;;;;4.65;1.92;;;;;;;;;;5027661;28;20038;-76
2023/12/18 03:28:35;;;;;;;2.25;1.40;;;;;;;;;;5048366;28;20037;-76
2023/12/18 03:31:00;;;;;;;1.50;1.40;;;;;;;;;;5046706;28;20055;-76
2023/12/18 03:33:26;;;;;;;1.75;1.38;;;;;;;;;;5045916;28;20427;-76
2023/12/18 03:35:51;;;;;;;3.72;1.70;;;;;;;;;;5041264;28;20017;-76
2023/12/18 03:38:16;;;;;;;2.10;1.90;;;;;;;;;;5042798;28;20059;-76
2023/12/18 03:40:41;;;;;;;2.95;1.95;;;;;;;;;;5045572;28;20741;-76
2023/12/18 03:43:07;;;;;;;2.22;1.85;;;;;;;;;;5018883;28;20036;-76
2023/12/18 03:45:32;;;;;;;3.05;1.70;;;;;;;;;;5020905;28;20455;-76
2023/12/18 03:47:57;;;;;;;1.65;1.55;;;;;;;;;;5023749;28;20021;-76
2023/12/18 03:50:23;;;;;;;1.92;1.75;;;;;;;;;;5039343;28;20037;-75
2023/12/18 03:52:48;;;;;;;2.08;1.88;;;;;;;;;;5045981;28;20036;-76
2023/12/18 03:55:13;;;;;;;3.00;1.80;;;;;;;;;;5037549;28;20102;-75
2023/12/18 03:57:39;;;;;;;2.13;1.92;;;;;;;;;;5036336;28;20044;-75
2023/12/18 04:00:05;;;;;;;2.78;2.10;;;;;;;;;;5024459;28;20124;-75
2023/12/18 04:02:31;;;;;;;3.38;2.60;;;;;;;;;;5049907;28;20500;-75
2023/12/18 04:04:56;;;;;;;3.38;2.40;;;;;;;;;;5046994;28;20025;-75
2023/12/18 04:07:21;;;;;;;2.78;1.88;;;;;;;;;;5048928;28;20513;-75
2023/12/18 04:09:47;;;;;;;2.13;1.90;;;;;;;;;;5045856;28;20508;-75
2023/12/18 04:12:12;;;;;;;2.50;2.13;;;;;;;;;;5046597;28;21022;-75
2023/12/18 04:14:37;;;;;;;2.88;2.15;;;;;;;;;;5038943;28;20029;-75
2023/12/18 04:17:02;;;;;;;2.30;2.10;;;;;;;;;;5025919;28;20463;-75
2023/12/18 04:19:28;;;;;;;2.40;2.20;;;;;;;;;;5045793;28;20044;-75
2023/12/18 04:21:53;;;;;;;3.03;2.72;;;;;;;;;;5042834;28;20083;-75
2023/12/18 04:24:18;;;;;;;5.03;2.47;;;;;;;;;;5038937;28;20572;-75
2023/12/18 04:26:43;;;;;;;2.70;2.13;;;;;;;;;;5043997;28;20028;-75
2023/12/18 04:29:09;;;;;;;2.95;2.20;;;;;;;;;;5023021;28;20052;-75
2023/12/18 04:31:34;;;;;;;4.20;2.22;;;;;;;;;;5042823;28;20566;-75
2023/12/18 04:33:59;;;;;;;2.55;2.35;;;;;;;;;;5049901;28;20539;-74
2023/12/18 04:36:25;;;;;;;3.60;2.17;;;;;;;;;;5047326;28;20037;-75
2023/12/18 04:38:50;;;;;;;2.50;2.20;;;;;;;;;;5045224;28;20031;-75
2023/12/18 04:41:22;;;;;;;6.88;3.05;;;;;;;;;;5046330;28;20032;-75
2023/12/18 04:43:48;;;;;;;2.28;2.08;;;;;;;;;;5041262;28;20064;-75
2023/12/18 04:46:14;;;;;;;2.20;1.88;;;;;;;;;;5028538;28;20037;-75
2023/12/18 04:48:40;;;;;;;2.70;2.15;;;;;;;;;;5043221;28;20116;-75
2023/12/18 04:51:06;;;;;;;2.38;2.17;;;;;;;;;;5047402;28;20441;-75
2023/12/18 04:53:33;;;;;;;4.90;2.20;;;;;;;;;;5046553;28;20045;-75
2023/12/18 04:55:58;;;;;;;3.58;2.28;;;;;;;;;;5041316;28;20040;-75
2023/12/18 04:58:23;;;;;;;3.60;2.25;;;;;;;;;;5039849;28;20037;-75
2023/12/18 05:00:49;;;;;;;2.55;2.25;;;;;;;;;;5040635;28;20037;-75
2023/12/18 05:03:14;;;;;;;4.53;2.53;;;;;;;;;;5042639;28;20068;-75
2023/12/18 05:05:40;;;;;;;2.25;2.05;;;;;;;;;;5045307;28;20036;-75
2023/12/18 05:08:05;;;;;;;2.08;1.55;;;;;;;;;;5045628;28;20079;-75
2023/12/18 05:10:30;;;;;;;2.40;1.67;;;;;;;;;;5040341;28;20096;-75
2023/12/18 05:12:57;;;;;;;1.92;1.60;;;;;;;;;;5036124;28;20037;-75
2023/12/18 05:15:22;;;;;;;3.95;1.60;;;;;;;;;;5049105;28;20489;-75
2023/12/18 05:17:47;;;;;;;2.47;1.70;;;;;;;;;;5044325;28;20021;-75
2023/12/18 05:20:13;;;;;;;2.75;1.60;;;;;;;;;;5019660;28;20046;-75
2023/12/18 05:22:38;;;;;;;2.80;1.88;;;;;;;;;;5036429;28;20358;-75
2023/12/18 05:25:04;;;;;;;4.63;2.60;;;;;;;;;;5022365;28;20040;-75
2023/12/18 05:27:29;;;;;;;2.05;1.50;;;;;;;;;;5048024;28;20037;-74
2023/12/18 05:29:54;;;;;;;3.60;1.33;;;;;;;;;;5039468;28;20048;-74
2023/12/18 05:32:20;;;;;;;4.00;1.80;;;;;;;;;;5041066;28;20040;-74
2023/12/18 05:34:45;;;;;;;2.97;1.92;;;;;;;;;;5025194;28;20037;-74
2023/12/18 05:37:11;;;;;;;3.53;1.40;;;;;;;;;;5045276;28;20044;-74
2023/12/18 05:39:36;;;;;;;1.52;1.42;;;;;;;;;;5045700;28;20116;-77
2023/12/18 05:42:01;;;;;;;5.25;1.80;;;;;;;;;;5040822;28;20026;-77
2023/12/18 05:44:27;;;;;;;2.75;1.58;;;;;;;;;;5029369;28;20033;-74
2023/12/18 05:46:52;;;;;;;2.05;1.80;;;;;;;;;;5011686;28;20393;-74
2023/12/18 05:49:17;;;;;;;5.45;1.63;;;;;;;;;;5042743;28;20044;-74
2023/12/18 05:51:42;;;;;;;5.22;1.95;;;;;;;;;;5029559;28;20121;-74
2023/12/18 05:54:08;;;;;;;7.82;2.63;;;;;;;;;;5034184;28;20040;-74
2023/12/18 05:56:33;;;;;;;2.60;1.90;;;;;;;;;;5038902;28;20079;-74
2023/12/18 05:58:59;;;;;;;4.60;1.85;;;;;;;;;;5029361;28;20041;-74
2023/12/18 06:01:24;;;;;;;3.17;1.98;;;;;;;;;;5049016;28;20033;-74
2023/12/18 06:03:50;;;;;;;2.50;1.67;;;;;;;;;;5039058;28;20393;-75
2023/12/18 06:06:15;;;;;;;2.70;1.75;;;;;;;;;;5033011;28;20036;-75
2023/12/18 06:08:40;;;;;;;1.88;1.65;;;;;;;;;;5041294;28;20074;-75
2023/12/18 06:11:06;;;;;;;3.40;1.80;;;;;;;;;;5022033;28;20107;-74
2023/12/18 06:13:31;;;;;;;2.30;1.95;;;;;;;;;;5036396;28;20037;-74
2023/12/18 06:15:57;;;;;;;1.83;1.55;;;;;;;;;;5030829;28;20057;-74
2023/12/18 06:18:22;;;;;;;2.05;1.73;;;;;;;;;;5044341;28;20119;-75
2023/12/18 06:20:47;;;;;;;1.50;1.35;;;;;;;;;;5034499;28;20151;-75
2023/12/18 06:23:13;;;;;;;2.47;1.65;;;;;;;;;;5038535;28;20134;-75
2023/12/18 06:25:38;;;;;;;1.80;1.67;;;;;;;;;;5032024;28;20095;-74
2023/12/18 06:28:03;;;;;;;2.00;1.90;;;;;;;;;;5035120;28;20033;-74
2023/12/18 06:30:29;;;;;;;3.53;2.03;;;;;;;;;;5031922;28;20464;-74
2023/12/18 06:32:54;;;;;;;6.25;2.25;;;;;;;;;;5047381;28;20044;-75
2023/12/18 06:35:20;;;;;;;4.90;2.75;;;;;;;;;;5048851;28;20033;-75
2023/12/18 06:37:45;;;;;;;5.80;2.80;;;;;;;;;;5032097;28;20044;-75
2023/12/18 06:40:11;;;;;;;4.15;2.10;;;;;;;;;;5041279;28;20536;-75
2023/12/18 06:42:36;;;;;;;3.20;2.30;;;;;;;;;;5031918;28;20091;-75
2023/12/18 06:45:02;;;;;;;5.95;2.47;;;;;;;;;;5034042;28;20032;-75
2023/12/18 06:47:28;;;;;;;2.95;2.20;;;;;;;;;;5033117;28;20044;-75
2023/12/18 06:49:54;;;;;;;5.25;3.60;;;;;;;;;;5039417;28;20038;-75
2023/12/18 06:52:19;;;;;;;6.07;3.20;;;;;;;;;;5048417;28;20044;-75
2023/12/18 06:54:45;;;;;;;5.90;3.10;;;;;;;;;;5038670;28;20124;-75
2023/12/18 06:57:11;;;;;;;4.38;2.38;;;;;;;;;;5040234;28;20037;-75
2023/12/18 06:59:37;;;;;;;4.40;2.90;;;;;;;;;;5015198;28;20033;-75
2023/12/18 07:02:03;;;;;;;16.55;6.45;;;;;;;;;;5033688;28;20033;-75
2023/12/18 07:04:28;;;;;;;29.05;10.63;;;;;;;;;;5039874;28;20053;-75
2023/12/18 07:06:53;;;;;;;33.30;10.10;;;;;;;;;;5048527;28;20519;-75
2023/12/18 07:09:18;;;;;;;10.07;4.07;;;;;;;;;;5025392;28;20477;-75
2023/12/18 07:11:44;;;;;;;9.73;5.40;;;;;;;;;;5035451;28;20030;-75
2023/12/18 07:14:09;;;;;;;11.02;4.78;;;;;;;;;;5037913;28;20042;-77
2023/12/18 07:16:35;;;;;;;14.57;3.70;;;;;;;;;;5038452;28;20061;-74
2023/12/18 07:19:00;;;;;;;8.38;4.25;;;;;;;;;;5050116;28;20116;-74
2023/12/18 07:21:26;;;;;;;5.72;2.90;;;;;;;;;;5025449;28;20033;-74
2023/12/18 07:23:51;;;;;;;3.13;2.58;;;;;;;;;;5039167;28;20028;-74
2023/12/18 07:26:16;;;;;;;6.15;2.72;;;;;;;;;;5041991;28;20037;-74
2023/12/18 07:28:43;;;;;;;4.90;3.05;;;;;;;;;;5036541;28;20037;-75
2023/12/18 07:31:08;;;;;;;5.47;3.38;;;;;;;;;;5041512;28;20037;-74
2023/12/18 07:33:35;;;;;;;6.18;3.47;;;;;;;;;;5029376;28;20045;-75
2023/12/18 07:36:01;;;;;;;6.40;2.95;;;;;;;;;;5040823;28;20033;-74
2023/12/18 07:38:26;;;;;;;11.15;3.00;;;;;;;;;;5046888;28;20120;-75
2023/12/18 07:40:51;;;;;;;4.65;2.67;;;;;;;;;;5016761;28;20103;-74
2023/12/18 07:43:16;;;;;;;7.18;3.10;;;;;;;;;;5034059;28;20037;-74
2023/12/18 07:45:42;;;;;;;6.05;3.05;;;;;;;;;;5031110;28;20422;-75
2023/12/18 07:48:07;;;;;;;4.05;2.40;;;;;;;;;;5029505;28;20029;-74
2023/12/18 07:50:32;;;;;;;3.58;2.50;;;;;;;;;;5036900;28;20186;-75
2023/12/18 07:52:58;;;;;;;3.63;2.60;;;;;;;;;;5040455;28;20120;-74
2023/12/18 07:55:23;;;;;;;3.33;2.50;;;;;;;;;;5049563;28;20033;-75
2023/12/18 07:57:48;;;;;;;5.45;2.97;;;;;;;;;;5049137;28;20035;-74
2023/12/18 08:00:14;;;;;;;4.07;2.85;;;;;;;;;;5036019;28;20024;-74
2023/12/18 08:02:39;;;;;;;2.85;2.35;;;;;;;;;;5037305;28;20025;-74
2023/12/18 08:05:05;;;;;;;3.95;2.60;;;;;;;;;;5045002;28;20344;-74
2023/12/18 08:07:30;;;;;;;2.67;2.47;;;;;;;;;;5043197;28;20104;-74
2023/12/18 08:09:56;;;;;;;7.70;2.13;;;;;;;;;;5045703;28;20037;-75
2023/12/18 08:12:21;;;;;;;6.65;1.90;;;;;;;;;;5034769;28;20021;-74
2023/12/18 08:14:46;;;;;;;1.70;1.35;;;;;;;;;;5034832;28;20033;-74
2023/12/18 08:17:12;;;;;;;3.85;1.90;;;;;;;;;;5039664;28;20033;-74
2023/12/18 08:19:38;;;;;;;2.80;1.50;;;;;;;;;;5039041;28;20452;-74
2023/12/18 08:22:03;;;;;;;3.70;1.60;;;;;;;;;;5040204;28;20039;-74
2023/12/18 08:24:28;;;;;;;1.70;1.60;;;;;;;;;;5041569;28;20098;-74
2023/12/18 08:26:54;;;;;;;2.47;1.92;;;;;;;;;;5044097;28;20430;-74
2023/12/18 08:29:19;;;;;;;8.43;1.77;;;;;;;;;;5033397;28;20025;-75
2023/12/18 08:31:44;;;;;;;8.60;2.13;;;;;;;;;;5025585;28;20071;-75
2023/12/18 08:34:10;;;;;;;3.70;2.20;;;;;;;;;;5034695;28;20038;-75
2023/12/18 08:36:36;;;;;;;13.25;2.13;;;;;;;;;;5034298;28;20033;-74
2023/12/18 08:39:02;;;;;;;7.72;1.65;;;;;;;;;;5036403;28;20481;-74
2023/12/18 08:41:27;;;;;;;11.18;2.80;;;;;;;;;;5038684;28;20497;-75
2023/12/18 08:43:53;;;;;;;4.68;1.98;;;;;;;;;;5034248;28;20051;-74
2023/12/18 08:46:18;;;;;;;6.85;1.55;;;;;;;;;;5043013;28;20037;-75
2023/12/18 08:48:43;;;;;;;16.85;2.95;;;;;;;;;;5016317;28;20025;-75
2023/12/18 08:51:08;;;;;;;15.32;2.33;;;;;;;;;;5036932;28;20024;-75
2023/12/18 08:53:34;;;;;;;9.45;2.55;;;;;;;;;;5038328;28;20385;-75
2023/12/18 08:55:59;;;;;;;14.20;2.60;;;;;;;;;;5032156;28;20049;-75
2023/12/18 08:58:25;;;;;;;19.00;3.00;;;;;;;;;;5027331;28;20590;-75
2023/12/18 09:00:52;;;;;;;9.90;2.83;;;;;;;;;;5026833;28;20060;-75
2023/12/18 09:03:20;;;;;;;18.83;3.17;;;;;;;;;;5033172;28;20021;-75
2023/12/18 09:05:45;;;;;;;11.20;2.95;;;;;;;;;;5028625;28;20040;-75
2023/12/18 09:08:13;;;;;;;55.20;4.65;;;;;;;;;;5027406;28;20046;-75
2023/12/18 09:10:39;;;;;;;19.08;2.55;;;;;;;;;;5042699;28;20044;-75
2023/12/18 09:13:05;;;;;;;5.95;1.73;;;;;;;;;;5047348;28;20037;-74
2023/12/18 09:15:30;;;;;;;1.80;1.40;;;;;;;;;;5037617;28;20041;-75
2023/12/18 09:17:55;;;;;;;1.77;1.30;;;;;;;;;;5031177;28;20114;-75
2023/12/18 09:20:21;;;;;;;3.22;1.88;;;;;;;;;;5021698;28;20116;-75
2023/12/18 09:22:48;;;;;;;7.15;1.60;;;;;;;;;;5031230;28;20072;-75
2023/12/18 09:25:13;;;;;;;24.67;3.38;;;;;;;;;;5033887;28;20117;-75
2023/12/18 09:27:38;;;;;;;26.67;3.08;;;;;;;;;;5030009;28;20072;-75
2023/12/18 09:30:05;;;;;;;22.98;3.72;;;;;;;;;;5032121;28;20124;-75
2023/12/18 09:32:30;;;;;;;14.57;2.38;;;;;;;;;;5023816;28;20029;-75
2023/12/18 09:34:55;;;;;;;11.18;2.00;;;;;;;;;;5022717;28;20087;-75
2023/12/18 09:37:21;;;;;;;5.40;1.65;;;;;;;;;;5029273;28;20033;-75
2023/12/18 09:39:46;;;;;;;2.70;1.65;;;;;;;;;;5034496;28;20116;-75
2023/12/18 09:42:11;;;;;;;2.70;1.52;;;;;;;;;;5015277;28;20037;-75
2023/12/18 09:44:37;;;;;;;2.55;1.45;;;;;;;;;;5030473;28;20040;-75
2023/12/18 09:47:03;;;;;;;2.28;1.50;;;;;;;;;;5027483;28;20048;-75
2023/12/18 09:49:29;;;;;;;1.90;1.50;;;;;;;;;;5036591;28;20056;-75
2023/12/18 09:52:00;;;;;;;2.78;1.48;;;;;;;;;;5042513;28;20402;-75
2023/12/18 09:54:27;;;;;;;1.60;1.40;;;;;;;;;;5041036;28;20059;-75
2023/12/18 09:56:55;;;;;;;1.98;1.40;;;;;;;;;;5047856;28;20069;-74
2023/12/18 09:59:20;;;;;;;3.03;2.15;;;;;;;;;;5037750;28;20037;-75
2023/12/18 10:01:46;;;;;;;4.45;2.47;;;;;;;;;;5018547;28;20048;-75
2023/12/18 10:04:12;;;;;;;3.63;2.40;;;;;;;;;;5033656;28;20405;-75
2023/12/18 10:06:37;;;;;;;7.10;2.33;;;;;;;;;;5046723;28;20029;-75
2023/12/18 10:09:06;;;;;;;4.88;2.05;;;;;;;;;;5044659;28;20060;-75
2023/12/18 10:11:32;;;;;;;5.95;2.10;;;;;;;;;;5040206;28;20032;-75
2023/12/18 10:13:58;;;;;;;2.20;1.67;;;;;;;;;;5031421;28;20486;-75
2023/12/18 10:16:23;;;;;;;2.85;2.05;;;;;;;;;;5035089;28;20029;-75
2023/12/18 10:18:50;;;;;;;2.25;1.75;;;;;;;;;;5039718;28;20464;-75
2023/12/18 10:21:22;;;;;;;2.28;1.85;;;;;;;;;;5046151;28;20056;-75
2023/12/18 10:23:48;;;;;;;2.55;1.63;;;;;;;;;;5038481;28;20504;-76
2023/12/18 10:26:13;;;;;;;1.95;1.70;;;;;;;;;;5042685;28;20073;-75
2023/12/18 10:28:38;;;;;;;3.72;1.70;;;;;;;;;;5034754;28;20037;-76
2023/12/18 10:31:08;;;;;;;2.38;1.85;;;;;;;;;;5022707;28;20042;-76
2023/12/18 10:33:34;;;;;;;3.03;1.90;;;;;;;;;;5034587;28;20046;-76
2023/12/18 10:36:00;;;;;;;1.90;1.45;;;;;;;;;;5042423;28;20500;-75
2023/12/18 10:38:29;;;;;;;2.20;1.30;;;;;;;;;;5042182;28;20067;-75
2023/12/18 10:40:59;;;;;;;3.30;1.48;;;;;;;;;;5046766;28;20079;-75
2023/12/18 10:43:25;;;;;;;1.77;1.55;;;;;;;;;;5047242;28;20132;-76
2023/12/18 10:45:54;;;;;;;3.60;1.40;;;;;;;;;;5043036;28;20120;-76
2023/12/18 10:48:20;;;;;;;3.10;1.65;;;;;;;;;;5024883;28;20112;-76
2023/12/18 10:50:50;;;;;;;1.65;1.55;;;;;;;;;;5034824;28;20116;-76
2023/12/18 10:53:17;;;;;;;1.77;1.48;;;;;;;;;;5042629;28;20037;-76
2023/12/18 10:55:44;;;;;;;3.50;1.67;;;;;;;;;;5036252;28;20033;-77
2023/12/18 10:58:10;;;;;;;1.40;1.30;;;;;;;;;;5036231;28;20041;-76
2023/12/18 11:00:37;;;;;;;2.70;1.63;;;;;;;;;;5047396;28;20100;-77
2023/12/18 11:03:03;;;;;;;2.55;1.17;;;;;;;;;;5043284;28;20056;-77
2023/12/18 11:05:30;;;;;;;1.35;1.25;;;;;;;;;;5047350;28;20164;-77
2023/12/18 11:07:57;;;;;;;1.20;1.10;;;;;;;;;;5042047;28;20512;-77
2023/12/18 11:10:24;;;;;;;2.45;1.27;;;;;;;;;;5050055;28;20041;-76
2023/12/18 11:12:53;;;;;;;1.35;1.25;;;;;;;;;;5034441;28;20049;-78
2023/12/18 11:15:47;;;;;;;1.92;1.50;;;;;;;;;;5037635;28;20063;-78
2023/12/18 11:18:48;;;;;;;1.30;1.20;;;;;;;;;;5042206;28;20025;-78
2023/12/18 11:21:14;;;;;;;4.05;1.40;;;;;;;;;;5016127;28;20397;-78
2023/12/18 11:23:39;;;;;;;4.55;1.52;;;;;;;;;;5023682;28;20017;-78
2023/12/18 11:26:09;;;;;;;1.40;1.30;;;;;;;;;;5047829;28;20039;-79
2023/12/18 11:28:35;;;;;;;1.85;1.67;;;;;;;;;;5032928;28;20041;-79
2023/12/18 11:31:01;;;;;;;1.83;1.30;;;;;;;;;;5045621;28;20044;-79
2023/12/18 11:33:26;;;;;;;4.65;2.63;;;;;;;;;;5051460;28;20378;-79
2023/12/18 11:35:51;;;;;;;8.85;2.72;;;;;;;;;;5047679;28;20050;-79
2023/12/18 11:38:21;;;;;;;3.65;2.30;;;;;;;;;;5042631;28;20037;-79
2023/12/18 11:40:52;;;;;;;11.23;2.67;;;;;;;;;;5041191;28;20033;-78
2023/12/18 11:43:41;;;;;;;8.55;2.67;;;;;;;;;;5029278;28;20029;-78
2023/12/18 11:46:09;;;;;;;4.75;2.97;;;;;;;;;;5039485;28;20120;-79
2023/12/18 11:48:35;;;;;;;5.60;2.65;;;;;;;;;;5039597;28;20142;-79
2023/12/18 11:51:04;;;;;;;3.92;2.03;;;;;;;;;;5036527;28;20033;-78
2023/12/18 11:53:34;;;;;;;8.80;2.72;;;;;;;;;;5048544;28;20044;-78
2023/12/18 11:56:08;;;;;;;9.57;2.15;;;;;;;;;;5035843;28;20382;-79
2023/12/18 11:58:35;;;;;;;;;;;;;;;;;;5044750;28;20386;-79
2023/12/18 12:01:01;;;;;;;3.78;2.17;;;;;;;;;;5036566;28;19917;-79
2023/12/18 12:03:26;;;;;;;2.80;2.20;;;;;;;;;;5056084;28;20386;-79
2023/12/18 12:05:52;;;;;;;8.35;2.15;;;;;;;;;;5051673;28;20030;-79
2023/12/18 12:08:18;;;;;;;3.58;2.78;;;;;;;;;;5053227;28;20544;-79
2023/12/18 12:10:47;;;;;;;2.80;2.17;;;;;;;;;;5036287;28;20487;-79
2023/12/18 12:13:20;;;;;;;3.75;2.83;;;;;;;;;;5036122;28;20033;-79
2023/12/18 12:16:00;;;;;;;2.35;1.90;;;;;;;;;;5022795;28;20382;-79
2023/12/18 12:18:33;;;;;;;3.42;2.30;;;;;;;;;;5047303;28;20036;-78
2023/12/18 12:20:59;;;;;;;6.20;2.13;;;;;;;;;;5050093;28;20393;-78
2023/12/18 12:23:25;;;;;;;8.70;2.03;;;;;;;;;;5053937;28;20029;-78
2023/12/18 12:25:52;;;;;;;2.75;2.17;;;;;;;;;;5042027;28;20087;-79
2023/12/18 12:28:18;;;;;;;2.63;2.03;;;;;;;;;;5035754;28;20034;-78
2023/12/18 12:30:44;;;;;;;5.22;2.15;;;;;;;;;;5044176;28;20096;-78
2023/12/18 12:33:10;;;;;;;2.15;1.50;;;;;;;;;;5043343;28;20029;-78
2023/12/18 12:35:35;;;;;;;1.83;1.45;;;;;;;;;;5019900;28;20025;-78
2023/12/18 12:38:02;;;;;;;6.30;1.50;;;;;;;;;;5035461;28;20381;-78
2023/12/18 12:40:45;;;;;;;2.25;1.55;;;;;;;;;;5037216;28;20042;-78
2023/12/18 12:43:11;;;;;;;4.50;1.90;;;;;;;;;;5052793;28;20033;-78
2023/12/18 12:45:41;;;;;;;2.33;1.67;;;;;;;;;;5035725;28;20029;-78
2023/12/18 12:48:08;;;;;;;2.55;1.90;;;;;;;;;;5035141;28;20021;-78
2023/12/18 12:50:41;;;;;;;2.83;1.27;;;;;;;;;;5038253;28;20124;-78
2023/12/18 12:53:10;;;;;;;5.70;1.60;;;;;;;;;;5040236;28;20068;-78
2023/12/18 12:55:37;;;;;;;2.25;1.67;;;;;;;;;;5036875;28;20044;-78
2023/12/18 12:58:03;;;;;;;7.28;1.77;;;;;;;;;;5035108;28;20044;-78
2023/12/18 13:00:28;;;;;;;1.60;1.50;;;;;;;;;;5037829;28;20037;-78
2023/12/18 13:02:54;;;;;;;1.55;1.45;;;;;;;;;;5033821;28;20029;-79
2023/12/18 13:05:19;;;;;;;2.00;1.50;;;;;;;;;;5033365;28;20378;-78
2023/12/18 13:07:46;;;;;;;2.28;1.55;;;;;;;;;;5037822;28;20029;-79
2023/12/18 13:10:12;;;;;;;1.73;1.40;;;;;;;;;;5051410;28;20400;-78
2023/12/18 13:12:37;;;;;;;2.08;1.45;;;;;;;;;;5033963;28;20045;-78
2023/12/18 13:15:04;;;;;;;2.13;1.40;;;;;;;;;;5034181;28;20029;-78
2023/12/18 13:17:29;;;;;;;1.40;1.30;;;;;;;;;;5034315;28;20033;-78
2023/12/18 13:19:54;;;;;;;2.25;1.45;;;;;;;;;;5035557;28;20038;-78
2023/12/18 13:22:19;;;;;;;1.90;1.45;;;;;;;;;;5022943;28;20505;-78
2023/12/18 13:24:45;;;;;;;1.02;1.00;;;;;;;;;;5017779;28;20021;-79
2023/12/18 13:27:10;;;;;;;1.05;1.05;;;;;;;;;;5035001;28;20024;-78
2023/12/18 13:29:35;;;;;;;1.67;1.00;;;;;;;;;;5040008;28;20177;-78
2023/12/18 13:32:04;;;;;;;1.30;1.20;;;;;;;;;;5044953;28;20038;-78
2023/12/18 13:34:33;;;;;;;1.63;1.20;;;;;;;;;;5014421;28;20406;-78
2023/12/18 13:36:59;;;;;;;1.30;1.20;;;;;;;;;;5035140;28;20041;-78
2023/12/18 13:39:25;;;;;;;2.95;1.30;;;;;;;;;;5037082;28;20040;-78
2023/12/18 13:41:59;;;;;;;3.47;1.38;;;;;;;;;;5044208;28;20025;-78
2023/12/18 13:44:24;;;;;;;2.15;1.30;;;;;;;;;;5033647;28;20114;-78
2023/12/18 13:46:50;;;;;;;1.20;1.10;;;;;;;;;;5033988;28;20080;-78
2023/12/18 13:49:15;;;;;;;1.30;1.20;;;;;;;;;;5034964;28;20477;-79
2023/12/18 13:51:40;;;;;;;2.38;1.30;;;;;;;;;;5035624;28;20029;-78
2023/12/18 13:54:06;;;;;;;2.03;1.13;;;;;;;;;;5037240;28;20409;-77
2023/12/18 13:56:31;;;;;;;3.83;1.30;;;;;;;;;;5037927;28;20384;-77
2023/12/18 13:58:59;;;;;;;1.20;1.10;;;;;;;;;;5039004;28;20141;-78
2023/12/18 14:01:24;;;;;;;2.85;1.50;;;;;;;;;;5047460;28;20501;-77
2023/12/18 14:03:49;;;;;;;2.20;1.45;;;;;;;;;;5036740;28;20033;-78
2023/12/18 14:06:14;;;;;;;1.83;1.42;;;;;;;;;;5036368;28;20029;-78
2023/12/18 14:08:40;;;;;;;2.03;1.42;;;;;;;;;;5036021;28;20082;-78
2023/12/18 14:11:05;;;;;;;1.88;1.33;;;;;;;;;;5039248;28;20037;-77
2023/12/18 14:13:31;;;;;;;1.60;1.50;;;;;;;;;;5034404;28;20421;-78
2023/12/18 14:15:57;;;;;;;2.22;1.60;;;;;;;;;;5036021;28;20033;-78
2023/12/18 14:18:22;;;;;;;1.58;1.48;;;;;;;;;;5019590;28;20032;-78
2023/12/18 14:20:47;;;;;;;1.92;1.40;;;;;;;;;;5032909;28;20025;-78
2023/12/18 14:23:13;;;;;;;2.15;1.58;;;;;;;;;;5038463;28;20040;-78
2023/12/18 14:25:38;;;;;;;1.95;1.50;;;;;;;;;;5037775;28;20061;-78
2023/12/18 14:28:03;;;;;;;1.35;1.25;;;;;;;;;;5037864;28;20030;-79
2023/12/18 14:30:29;;;;;;;3.97;3.17;;;;;;;;;;5045850;28;20084;-78
2023/12/18 14:32:54;;;;;;;6.03;1.55;;;;;;;;;;5038979;28;20547;-78
2023/12/18 14:35:20;;;;;;;1.70;1.60;;;;;;;;;;5042956;28;20057;-78
2023/12/18 14:37:45;;;;;;;5.13;1.50;;;;;;;;;;5045898;28;20038;-78